sensor_id;sensor_type;location;lat;lon;timestamp;P1;durP1;ratioP1;P2;durP2;ratioP2
15307;SDS011;7755;52.208;6.964;2022-10-03T00:01:09;5.50;;;4.77;;
15307;SDS011;7755;52.208;6.964;2022-10-03T00:05:31;9.63;;;5.30;;
15307;SDS011;7755;52.208;6.964;2022-10-03T00:09:49;10.60;;;5.20;;
15307;SDS011;7755;52.208;6.964;2022-10-03T00:14:03;7.63;;;4.87;;
15307;SDS011;7755;52.208;6.964;2022-10-03T00:18:21;5.47;;;3.57;;
15307;SDS011;7755;52.208;6.964;2022-10-03T00:22:36;10.53;;;6.47;;
15307;SDS011;7755;52.208;6.964;2022-10-03T00:26:48;7.80;;;4.57;;
15307;SDS011;7755;52.208;6.964;2022-10-03T00:30:56;7.80;;;4.57;;
15307;SDS011;7755;52.208;6.964;2022-10-03T00:35:14;8.40;;;4.97;;
15307;SDS011;7755;52.208;6.964;2022-10-03T00:39:35;8.00;;;4.47;;
15307;SDS011;7755;52.208;6.964;2022-10-03T00:44:00;7.07;;;4.23;;
15307;SDS011;7755;52.208;6.964;2022-10-03T00:48:40;6.47;;;4.13;;
15307;SDS011;7755;52.208;6.964;2022-10-03T00:53:11;5.80;;;3.77;;
15307;SDS011;7755;52.208;6.964;2022-10-03T00:57:34;5.77;;;3.80;;
15307;SDS011;7755;52.208;6.964;2022-10-03T01:01:50;10.57;;;4.73;;
15307;SDS011;7755;52.208;6.964;2022-10-03T01:05:56;9.13;;;4.90;;
15307;SDS011;7755;52.208;6.964;2022-10-03T01:10:10;5.53;;;4.30;;
15307;SDS011;7755;52.208;6.964;2022-10-03T01:14:25;7.90;;;3.70;;
15307;SDS011;7755;52.208;6.964;2022-10-03T01:18:44;5.27;;;3.60;;
15307;SDS011;7755;52.208;6.964;2022-10-03T01:27:31;7.80;;;4.37;;
15307;SDS011;7755;52.208;6.964;2022-10-03T01:32:02;6.70;;;4.37;;
15307;SDS011;7755;52.208;6.964;2022-10-03T01:36:11;7.20;;;4.33;;
15307;SDS011;7755;52.208;6.964;2022-10-03T01:40:20;7.23;;;4.70;;
15307;SDS011;7755;52.208;6.964;2022-10-03T01:44:30;7.57;;;4.53;;
15307;SDS011;7755;52.208;6.964;2022-10-03T01:48:44;5.27;;;4.70;;
15307;SDS011;7755;52.208;6.964;2022-10-03T01:52:55;11.37;;;4.80;;
15307;SDS011;7755;52.208;6.964;2022-10-03T01:57:12;9.77;;;4.43;;
15307;SDS011;7755;52.208;6.964;2022-10-03T02:01:21;6.67;;;4.57;;
15307;SDS011;7755;52.208;6.964;2022-10-03T02:05:35;9.73;;;4.73;;
15307;SDS011;7755;52.208;6.964;2022-10-03T02:09:47;11.03;;;5.20;;
15307;SDS011;7755;52.208;6.964;2022-10-03T02:13:59;12.93;;;5.60;;
15307;SDS011;7755;52.208;6.964;2022-10-03T02:18:17;15.13;;;5.77;;
15307;SDS011;7755;52.208;6.964;2022-10-03T02:22:30;8.00;;;4.30;;
15307;SDS011;7755;52.208;6.964;2022-10-03T02:31:16;5.93;;;4.60;;
15307;SDS011;7755;52.208;6.964;2022-10-03T02:35:49;8.77;;;4.47;;
15307;SDS011;7755;52.208;6.964;2022-10-03T02:40:09;10.23;;;4.73;;
15307;SDS011;7755;52.208;6.964;2022-10-03T02:44:44;11.83;;;5.30;;
15307;SDS011;7755;52.208;6.964;2022-10-03T02:53:50;8.70;;;4.03;;
15307;SDS011;7755;52.208;6.964;2022-10-03T02:58:23;6.97;;;4.87;;
15307;SDS011;7755;52.208;6.964;2022-10-03T03:07:28;6.50;;;4.77;;
15307;SDS011;7755;52.208;6.964;2022-10-03T03:11:48;7.80;;;4.30;;
15307;SDS011;7755;52.208;6.964;2022-10-03T03:16:31;5.47;;;3.90;;
15307;SDS011;7755;52.208;6.964;2022-10-03T03:21:06;9.77;;;4.30;;
15307;SDS011;7755;52.208;6.964;2022-10-03T03:25:20;8.03;;;3.80;;
15307;SDS011;7755;52.208;6.964;2022-10-03T03:29:37;5.17;;;3.77;;
15307;SDS011;7755;52.208;6.964;2022-10-03T03:33:53;6.73;;;3.80;;
15307;SDS011;7755;52.208;6.964;2022-10-03T03:38:10;5.27;;;3.97;;
15307;SDS011;7755;52.208;6.964;2022-10-03T03:42:29;5.30;;;3.60;;
15307;SDS011;7755;52.208;6.964;2022-10-03T03:46:41;6.00;;;3.80;;
15307;SDS011;7755;52.208;6.964;2022-10-03T03:50:57;5.97;;;3.57;;
15307;SDS011;7755;52.208;6.964;2022-10-03T03:55:21;6.50;;;4.60;;
15307;SDS011;7755;52.208;6.964;2022-10-03T03:59:47;11.77;;;4.83;;
15307;SDS011;7755;52.208;6.964;2022-10-03T04:04:07;5.83;;;3.73;;
15307;SDS011;7755;52.208;6.964;2022-10-03T04:08:31;6.23;;;4.37;;
15307;SDS011;7755;52.208;6.964;2022-10-03T04:12:52;7.97;;;4.47;;
15307;SDS011;7755;52.208;6.964;2022-10-03T04:17:08;7.33;;;4.10;;
15307;SDS011;7755;52.208;6.964;2022-10-03T04:26:18;7.67;;;4.07;;
15307;SDS011;7755;52.208;6.964;2022-10-03T04:30:27;5.83;;;3.70;;
15307;SDS011;7755;52.208;6.964;2022-10-03T04:34:39;5.97;;;4.03;;
15307;SDS011;7755;52.208;6.964;2022-10-03T04:38:53;7.00;;;4.30;;
15307;SDS011;7755;52.208;6.964;2022-10-03T04:43:08;10.00;;;4.30;;
15307;SDS011;7755;52.208;6.964;2022-10-03T04:47:15;7.53;;;4.13;;
15307;SDS011;7755;52.208;6.964;2022-10-03T04:51:27;6.27;;;3.73;;
15307;SDS011;7755;52.208;6.964;2022-10-03T04:55:41;7.17;;;3.90;;
15307;SDS011;7755;52.208;6.964;2022-10-03T04:59:51;9.47;;;5.17;;
15307;SDS011;7755;52.208;6.964;2022-10-03T05:04:17;8.17;;;4.43;;
15307;SDS011;7755;52.208;6.964;2022-10-03T05:08:33;7.03;;;4.23;;
15307;SDS011;7755;52.208;6.964;2022-10-03T05:12:42;8.70;;;4.83;;
15307;SDS011;7755;52.208;6.964;2022-10-03T05:16:56;8.93;;;4.57;;
15307;SDS011;7755;52.208;6.964;2022-10-03T05:21:08;4.53;;;3.83;;
15307;SDS011;7755;52.208;6.964;2022-10-03T05:25:18;4.43;;;4.00;;
15307;SDS011;7755;52.208;6.964;2022-10-03T05:29:30;6.23;;;4.80;;
15307;SDS011;7755;52.208;6.964;2022-10-03T05:33:44;10.67;;;6.07;;
15307;SDS011;7755;52.208;6.964;2022-10-03T05:42:38;6.10;;;4.17;;
15307;SDS011;7755;52.208;6.964;2022-10-03T05:47:02;6.80;;;4.57;;
15307;SDS011;7755;52.208;6.964;2022-10-03T05:51:37;8.03;;;5.87;;
15307;SDS011;7755;52.208;6.964;2022-10-03T05:55:57;8.37;;;4.13;;
15307;SDS011;7755;52.208;6.964;2022-10-03T06:00:09;6.07;;;4.40;;
15307;SDS011;7755;52.208;6.964;2022-10-03T06:09:09;10.73;;;6.40;;
15307;SDS011;7755;52.208;6.964;2022-10-03T06:13:29;5.83;;;4.53;;
15307;SDS011;7755;52.208;6.964;2022-10-03T06:17:54;7.33;;;4.70;;
15307;SDS011;7755;52.208;6.964;2022-10-03T06:31:36;7.73;;;5.83;;
15307;SDS011;7755;52.208;6.964;2022-10-03T06:40:53;11.63;;;6.80;;
15307;SDS011;7755;52.208;6.964;2022-10-03T06:45:21;10.90;;;7.23;;
15307;SDS011;7755;52.208;6.964;2022-10-03T06:50:07;6.23;;;5.60;;
15307;SDS011;7755;52.208;6.964;2022-10-03T06:54:30;7.30;;;5.97;;
15307;SDS011;7755;52.208;6.964;2022-10-03T06:59:01;7.80;;;6.00;;
15307;SDS011;7755;52.208;6.964;2022-10-03T07:03:36;10.80;;;6.87;;
15307;SDS011;7755;52.208;6.964;2022-10-03T07:12:42;9.63;;;6.83;;
15307;SDS011;7755;52.208;6.964;2022-10-03T07:17:02;11.17;;;6.87;;
15307;SDS011;7755;52.208;6.964;2022-10-03T07:21:31;8.93;;;5.30;;
15307;SDS011;7755;52.208;6.964;2022-10-03T07:30:32;14.60;;;6.70;;
15307;SDS011;7755;52.208;6.964;2022-10-03T07:44:20;10.90;;;6.80;;
15307;SDS011;7755;52.208;6.964;2022-10-03T07:48:53;11.17;;;6.50;;
15307;SDS011;7755;52.208;6.964;2022-10-03T07:53:25;11.77;;;6.77;;
15307;SDS011;7755;52.208;6.964;2022-10-03T07:58:01;8.97;;;5.50;;
15307;SDS011;7755;52.208;6.964;2022-10-03T08:07:08;9.73;;;5.73;;
15307;SDS011;7755;52.208;6.964;2022-10-03T08:11:29;10.77;;;6.90;;
15307;SDS011;7755;52.208;6.964;2022-10-03T08:15:50;13.27;;;6.10;;
15307;SDS011;7755;52.208;6.964;2022-10-03T08:20:15;8.57;;;5.87;;
15307;SDS011;7755;52.208;6.964;2022-10-03T08:24:52;9.87;;;5.17;;
15307;SDS011;7755;52.208;6.964;2022-10-03T08:29:17;12.50;;;5.80;;
15307;SDS011;7755;52.208;6.964;2022-10-03T08:33:33;8.93;;;5.30;;
15307;SDS011;7755;52.208;6.964;2022-10-03T08:38:08;11.03;;;5.03;;
15307;SDS011;7755;52.208;6.964;2022-10-03T08:42:42;10.03;;;4.90;;
15307;SDS011;7755;52.208;6.964;2022-10-03T08:47:10;9.63;;;4.47;;
15307;SDS011;7755;52.208;6.964;2022-10-03T08:56:07;6.13;;;4.40;;
15307;SDS011;7755;52.208;6.964;2022-10-03T09:00:17;10.10;;;5.20;;
15307;SDS011;7755;52.208;6.964;2022-10-03T09:09:00;8.33;;;4.53;;
15307;SDS011;7755;52.208;6.964;2022-10-03T09:13:41;10.50;;;4.20;;
15307;SDS011;7755;52.208;6.964;2022-10-03T09:18:26;9.70;;;3.97;;
15307;SDS011;7755;52.208;6.964;2022-10-03T09:22:46;5.83;;;3.70;;
15307;SDS011;7755;52.208;6.964;2022-10-03T09:27:28;8.23;;;3.43;;
15307;SDS011;7755;52.208;6.964;2022-10-03T09:31:54;5.20;;;3.10;;
15307;SDS011;7755;52.208;6.964;2022-10-03T09:36:25;4.70;;;2.93;;
15307;SDS011;7755;52.208;6.964;2022-10-03T09:40:57;7.80;;;3.60;;
15307;SDS011;7755;52.208;6.964;2022-10-03T09:55:21;4.03;;;2.60;;
15307;SDS011;7755;52.208;6.964;2022-10-03T10:04:31;6.77;;;2.70;;
15307;SDS011;7755;52.208;6.964;2022-10-03T10:08:58;7.03;;;2.80;;
15307;SDS011;7755;52.208;6.964;2022-10-03T10:13:43;7.23;;;2.47;;
15307;SDS011;7755;52.208;6.964;2022-10-03T10:22:57;6.30;;;2.53;;
15307;SDS011;7755;52.208;6.964;2022-10-03T10:32:09;4.23;;;2.07;;
15307;SDS011;7755;52.208;6.964;2022-10-03T10:46:04;4.93;;;1.77;;
15307;SDS011;7755;52.208;6.964;2022-10-03T11:00:18;5.13;;;2.10;;
15307;SDS011;7755;52.208;6.964;2022-10-03T11:04:40;4.40;;;2.20;;
15307;SDS011;7755;52.208;6.964;2022-10-03T11:23:26;3.73;;;1.60;;
15307;SDS011;7755;52.208;6.964;2022-10-03T11:27:57;3.80;;;1.73;;
15307;SDS011;7755;52.208;6.964;2022-10-03T11:32:34;3.10;;;1.67;;
15307;SDS011;7755;52.208;6.964;2022-10-03T11:37:06;3.80;;;1.70;;
15307;SDS011;7755;52.208;6.964;2022-10-03T11:41:19;4.07;;;1.73;;
15307;SDS011;7755;52.208;6.964;2022-10-03T11:45:29;3.40;;;1.50;;
15307;SDS011;7755;52.208;6.964;2022-10-03T11:49:49;5.10;;;2.10;;
15307;SDS011;7755;52.208;6.964;2022-10-03T11:54:07;3.33;;;1.63;;
15307;SDS011;7755;52.208;6.964;2022-10-03T11:58:26;4.33;;;1.83;;
15307;SDS011;7755;52.208;6.964;2022-10-03T12:07:14;3.00;;;1.70;;
15307;SDS011;7755;52.208;6.964;2022-10-03T12:11:45;5.23;;;1.80;;
15307;SDS011;7755;52.208;6.964;2022-10-03T12:15:57;2.90;;;1.77;;
15307;SDS011;7755;52.208;6.964;2022-10-03T12:20:03;3.17;;;2.17;;
15307;SDS011;7755;52.208;6.964;2022-10-03T12:24:18;5.53;;;2.33;;
15307;SDS011;7755;52.208;6.964;2022-10-03T12:28:28;7.07;;;2.17;;
15307;SDS011;7755;52.208;6.964;2022-10-03T12:32:41;4.40;;;1.93;;
15307;SDS011;7755;52.208;6.964;2022-10-03T12:36:56;4.87;;;1.70;;
15307;SDS011;7755;52.208;6.964;2022-10-03T12:41:18;4.90;;;2.10;;
15307;SDS011;7755;52.208;6.964;2022-10-03T12:45:25;4.33;;;1.87;;
15307;SDS011;7755;52.208;6.964;2022-10-03T12:49:37;3.17;;;2.07;;
15307;SDS011;7755;52.208;6.964;2022-10-03T12:53:49;5.33;;;2.27;;
15307;SDS011;7755;52.208;6.964;2022-10-03T12:57:59;2.87;;;1.90;;
15307;SDS011;7755;52.208;6.964;2022-10-03T13:02:15;3.60;;;1.70;;
15307;SDS011;7755;52.208;6.964;2022-10-03T13:06:36;2.37;;;1.90;;
15307;SDS011;7755;52.208;6.964;2022-10-03T13:10:45;3.43;;;1.97;;
15307;SDS011;7755;52.208;6.964;2022-10-03T13:19:46;3.67;;;2.17;;
15307;SDS011;7755;52.208;6.964;2022-10-03T13:23:56;4.37;;;2.40;;
15307;SDS011;7755;52.208;6.964;2022-10-03T13:28:05;4.13;;;1.90;;
15307;SDS011;7755;52.208;6.964;2022-10-03T13:32:16;3.80;;;1.90;;
15307;SDS011;7755;52.208;6.964;2022-10-03T13:36:24;6.20;;;4.10;;
15307;SDS011;7755;52.208;6.964;2022-10-03T13:40:32;4.97;;;2.60;;
15307;SDS011;7755;52.208;6.964;2022-10-03T13:44:38;4.97;;;2.10;;
15307;SDS011;7755;52.208;6.964;2022-10-03T13:48:43;2.53;;;1.77;;
15307;SDS011;7755;52.208;6.964;2022-10-03T13:52:56;3.47;;;2.33;;
15307;SDS011;7755;52.208;6.964;2022-10-03T13:57:04;4.70;;;1.73;;
15307;SDS011;7755;52.208;6.964;2022-10-03T14:01:23;5.87;;;2.10;;
15307;SDS011;7755;52.208;6.964;2022-10-03T14:05:38;4.57;;;2.00;;
15307;SDS011;7755;52.208;6.964;2022-10-03T14:09:56;5.03;;;2.13;;
15307;SDS011;7755;52.208;6.964;2022-10-03T14:14:22;4.57;;;2.33;;
15307;SDS011;7755;52.208;6.964;2022-10-03T14:18:50;4.30;;;2.00;;
15307;SDS011;7755;52.208;6.964;2022-10-03T14:23:00;2.90;;;1.70;;
15307;SDS011;7755;52.208;6.964;2022-10-03T14:27:27;2.67;;;1.97;;
15307;SDS011;7755;52.208;6.964;2022-10-03T14:31:38;3.43;;;1.60;;
15307;SDS011;7755;52.208;6.964;2022-10-03T14:35:54;4.20;;;2.07;;
15307;SDS011;7755;52.208;6.964;2022-10-03T14:40:11;2.67;;;1.80;;
15307;SDS011;7755;52.208;6.964;2022-10-03T14:44:19;3.43;;;2.17;;
15307;SDS011;7755;52.208;6.964;2022-10-03T14:48:27;2.70;;;2.13;;
15307;SDS011;7755;52.208;6.964;2022-10-03T14:52:32;3.83;;;2.00;;
15307;SDS011;7755;52.208;6.964;2022-10-03T14:56:40;3.67;;;2.00;;
15307;SDS011;7755;52.208;6.964;2022-10-03T15:00:44;4.37;;;2.70;;
15307;SDS011;7755;52.208;6.964;2022-10-03T15:04:50;3.90;;;1.90;;
15307;SDS011;7755;52.208;6.964;2022-10-03T15:08:57;3.13;;;1.90;;
15307;SDS011;7755;52.208;6.964;2022-10-03T15:13:02;7.13;;;2.37;;
15307;SDS011;7755;52.208;6.964;2022-10-03T15:17:14;4.17;;;2.40;;
15307;SDS011;7755;52.208;6.964;2022-10-03T15:21:21;5.17;;;2.60;;
15307;SDS011;7755;52.208;6.964;2022-10-03T15:25:25;3.53;;;2.07;;
15307;SDS011;7755;52.208;6.964;2022-10-03T15:29:32;3.73;;;1.77;;
15307;SDS011;7755;52.208;6.964;2022-10-03T15:33:36;3.73;;;2.20;;
15307;SDS011;7755;52.208;6.964;2022-10-03T15:37:40;5.07;;;2.30;;
15307;SDS011;7755;52.208;6.964;2022-10-03T15:41:47;4.43;;;1.90;;
15307;SDS011;7755;52.208;6.964;2022-10-03T15:45:53;3.50;;;1.70;;
15307;SDS011;7755;52.208;6.964;2022-10-03T15:49:58;3.93;;;1.97;;
15307;SDS011;7755;52.208;6.964;2022-10-03T15:54:06;3.87;;;2.23;;
15307;SDS011;7755;52.208;6.964;2022-10-03T15:58:13;3.23;;;2.30;;
15307;SDS011;7755;52.208;6.964;2022-10-03T16:02:18;2.83;;;2.57;;
15307;SDS011;7755;52.208;6.964;2022-10-03T16:06:27;4.40;;;2.47;;
15307;SDS011;7755;52.208;6.964;2022-10-03T16:10:36;5.30;;;3.50;;
15307;SDS011;7755;52.208;6.964;2022-10-03T16:14:42;7.30;;;5.90;;
15307;SDS011;7755;52.208;6.964;2022-10-03T16:18:49;8.67;;;6.37;;
15307;SDS011;7755;52.208;6.964;2022-10-03T16:22:56;9.10;;;5.83;;
15307;SDS011;7755;52.208;6.964;2022-10-03T16:27:05;5.07;;;4.57;;
15307;SDS011;7755;52.208;6.964;2022-10-03T16:31:15;3.70;;;2.43;;
15307;SDS011;7755;52.208;6.964;2022-10-03T16:35:26;5.37;;;2.40;;
15307;SDS011;7755;52.208;6.964;2022-10-03T16:39:35;2.77;;;2.10;;
15307;SDS011;7755;52.208;6.964;2022-10-03T16:43:53;4.07;;;2.27;;
15307;SDS011;7755;52.208;6.964;2022-10-03T16:47:56;3.20;;;2.30;;
15307;SDS011;7755;52.208;6.964;2022-10-03T16:52:20;13.07;;;9.03;;
15307;SDS011;7755;52.208;6.964;2022-10-03T16:56:25;10.63;;;7.90;;
15307;SDS011;7755;52.208;6.964;2022-10-03T17:00:33;13.33;;;11.33;;
15307;SDS011;7755;52.208;6.964;2022-10-03T17:04:43;14.23;;;12.73;;
15307;SDS011;7755;52.208;6.964;2022-10-03T17:08:49;10.50;;;8.43;;
15307;SDS011;7755;52.208;6.964;2022-10-03T17:12:53;13.50;;;9.57;;
15307;SDS011;7755;52.208;6.964;2022-10-03T17:17:02;10.80;;;8.83;;
15307;SDS011;7755;52.208;6.964;2022-10-03T17:21:09;7.83;;;6.67;;
15307;SDS011;7755;52.208;6.964;2022-10-03T17:29:46;8.07;;;6.00;;
15307;SDS011;7755;52.208;6.964;2022-10-03T17:33:54;9.80;;;6.57;;
15307;SDS011;7755;52.208;6.964;2022-10-03T17:38:13;6.77;;;6.10;;
15307;SDS011;7755;52.208;6.964;2022-10-03T17:42:33;7.17;;;6.23;;
15307;SDS011;7755;52.208;6.964;2022-10-03T17:46:40;6.90;;;5.30;;
15307;SDS011;7755;52.208;6.964;2022-10-03T17:50:51;6.60;;;4.23;;
15307;SDS011;7755;52.208;6.964;2022-10-03T17:55:02;5.50;;;3.47;;
15307;SDS011;7755;52.208;6.964;2022-10-03T17:59:11;4.43;;;2.90;;
15307;SDS011;7755;52.208;6.964;2022-10-03T18:03:16;3.20;;;2.80;;
15307;SDS011;7755;52.208;6.964;2022-10-03T18:07:26;3.93;;;2.80;;
15307;SDS011;7755;52.208;6.964;2022-10-03T18:11:29;4.00;;;3.00;;
15307;SDS011;7755;52.208;6.964;2022-10-03T18:15:39;4.63;;;3.10;;
15307;SDS011;7755;52.208;6.964;2022-10-03T18:20:02;3.60;;;3.20;;
15307;SDS011;7755;52.208;6.964;2022-10-03T18:28:59;6.10;;;2.97;;
15307;SDS011;7755;52.208;6.964;2022-10-03T18:33:14;5.10;;;2.63;;
15307;SDS011;7755;52.208;6.964;2022-10-03T18:42:04;4.27;;;3.50;;
15307;SDS011;7755;52.208;6.964;2022-10-03T18:46:15;4.93;;;3.83;;
15307;SDS011;7755;52.208;6.964;2022-10-03T18:50:20;4.97;;;3.90;;
15307;SDS011;7755;52.208;6.964;2022-10-03T18:54:29;4.87;;;4.37;;
15307;SDS011;7755;52.208;6.964;2022-10-03T18:58:40;5.10;;;4.60;;
15307;SDS011;7755;52.208;6.964;2022-10-03T19:02:47;7.23;;;6.07;;
15307;SDS011;7755;52.208;6.964;2022-10-03T19:06:53;8.87;;;6.30;;
15307;SDS011;7755;52.208;6.964;2022-10-03T19:10:57;6.43;;;5.83;;
15307;SDS011;7755;52.208;6.964;2022-10-03T19:15:06;7.20;;;6.60;;
15307;SDS011;7755;52.208;6.964;2022-10-03T19:19:21;7.20;;;6.53;;
15307;SDS011;7755;52.208;6.964;2022-10-03T19:23:30;8.83;;;7.47;;
15307;SDS011;7755;52.208;6.964;2022-10-03T19:27:41;9.80;;;8.00;;
15307;SDS011;7755;52.208;6.964;2022-10-03T19:31:58;14.63;;;11.93;;
15307;SDS011;7755;52.208;6.964;2022-10-03T19:36:02;10.97;;;9.83;;
15307;SDS011;7755;52.208;6.964;2022-10-03T19:40:11;9.07;;;8.10;;
15307;SDS011;7755;52.208;6.964;2022-10-03T19:44:16;9.23;;;8.33;;
15307;SDS011;7755;52.208;6.964;2022-10-03T19:48:20;15.80;;;14.17;;
15307;SDS011;7755;52.208;6.964;2022-10-03T19:52:26;15.87;;;12.13;;
15307;SDS011;7755;52.208;6.964;2022-10-03T19:56:30;11.60;;;10.10;;
15307;SDS011;7755;52.208;6.964;2022-10-03T20:00:35;12.30;;;10.13;;
15307;SDS011;7755;52.208;6.964;2022-10-03T20:04:40;9.30;;;8.40;;
15307;SDS011;7755;52.208;6.964;2022-10-03T20:08:43;13.53;;;10.83;;
15307;SDS011;7755;52.208;6.964;2022-10-03T20:12:48;11.63;;;10.43;;
15307;SDS011;7755;52.208;6.964;2022-10-03T20:16:52;9.60;;;8.07;;
15307;SDS011;7755;52.208;6.964;2022-10-03T20:20:58;7.53;;;6.67;;
15307;SDS011;7755;52.208;6.964;2022-10-03T20:25:02;6.90;;;6.30;;
15307;SDS011;7755;52.208;6.964;2022-10-03T20:29:15;6.43;;;5.73;;
15307;SDS011;7755;52.208;6.964;2022-10-03T20:33:27;4.80;;;4.40;;
15307;SDS011;7755;52.208;6.964;2022-10-03T20:37:38;6.10;;;5.50;;
15307;SDS011;7755;52.208;6.964;2022-10-03T20:41:53;6.83;;;6.13;;
15307;SDS011;7755;52.208;6.964;2022-10-03T20:46:03;6.17;;;5.57;;
15307;SDS011;7755;52.208;6.964;2022-10-03T20:50:17;5.93;;;5.33;;
15307;SDS011;7755;52.208;6.964;2022-10-03T20:54:25;5.87;;;5.37;;
15307;SDS011;7755;52.208;6.964;2022-10-03T20:58:33;6.80;;;5.07;;
15307;SDS011;7755;52.208;6.964;2022-10-03T21:02:40;5.23;;;4.77;;
15307;SDS011;7755;52.208;6.964;2022-10-03T21:06:50;5.77;;;5.07;;
15307;SDS011;7755;52.208;6.964;2022-10-03T21:10:59;3.97;;;3.63;;
15307;SDS011;7755;52.208;6.964;2022-10-03T21:15:05;4.37;;;3.87;;
15307;SDS011;7755;52.208;6.964;2022-10-03T21:19:14;6.40;;;5.80;;
15307;SDS011;7755;52.208;6.964;2022-10-03T21:23:19;6.20;;;5.60;;
15307;SDS011;7755;52.208;6.964;2022-10-03T21:27:26;7.30;;;6.50;;
15307;SDS011;7755;52.208;6.964;2022-10-03T21:31:31;6.50;;;5.97;;
15307;SDS011;7755;52.208;6.964;2022-10-03T21:35:39;5.93;;;5.43;;
15307;SDS011;7755;52.208;6.964;2022-10-03T21:39:45;6.63;;;6.00;;
15307;SDS011;7755;52.208;6.964;2022-10-03T21:43:59;7.03;;;6.10;;
15307;SDS011;7755;52.208;6.964;2022-10-03T21:48:05;6.60;;;5.87;;
15307;SDS011;7755;52.208;6.964;2022-10-03T21:52:20;6.87;;;6.20;;
15307;SDS011;7755;52.208;6.964;2022-10-03T21:56:50;6.27;;;5.63;;
15307;SDS011;7755;52.208;6.964;2022-10-03T22:01:04;6.50;;;5.90;;
15307;SDS011;7755;52.208;6.964;2022-10-03T22:05:15;6.60;;;6.00;;
15307;SDS011;7755;52.208;6.964;2022-10-03T22:09:25;7.50;;;6.90;;
15307;SDS011;7755;52.208;6.964;2022-10-03T22:13:34;7.97;;;6.67;;
15307;SDS011;7755;52.208;6.964;2022-10-03T22:17:38;6.90;;;6.23;;
15307;SDS011;7755;52.208;6.964;2022-10-03T22:22:01;7.87;;;6.50;;
15307;SDS011;7755;52.208;6.964;2022-10-03T22:26:13;6.97;;;6.27;;
15307;SDS011;7755;52.208;6.964;2022-10-03T22:30:20;6.33;;;5.73;;
15307;SDS011;7755;52.208;6.964;2022-10-03T22:34:26;6.53;;;5.93;;
15307;SDS011;7755;52.208;6.964;2022-10-03T22:38:37;5.83;;;5.23;;
15307;SDS011;7755;52.208;6.964;2022-10-03T22:42:41;6.17;;;5.57;;
15307;SDS011;7755;52.208;6.964;2022-10-03T22:46:47;6.53;;;5.80;;
15307;SDS011;7755;52.208;6.964;2022-10-03T22:50:53;6.40;;;5.83;;
15307;SDS011;7755;52.208;6.964;2022-10-03T22:54:57;6.77;;;6.27;;
15307;SDS011;7755;52.208;6.964;2022-10-03T22:59:01;7.03;;;5.80;;
15307;SDS011;7755;52.208;6.964;2022-10-03T23:03:06;6.60;;;5.90;;
15307;SDS011;7755;52.208;6.964;2022-10-03T23:07:14;8.77;;;6.67;;
15307;SDS011;7755;52.208;6.964;2022-10-03T23:11:26;6.70;;;6.10;;
15307;SDS011;7755;52.208;6.964;2022-10-03T23:15:29;7.97;;;6.77;;
15307;SDS011;7755;52.208;6.964;2022-10-03T23:19:36;8.07;;;7.27;;
15307;SDS011;7755;52.208;6.964;2022-10-03T23:23:52;6.10;;;5.50;;
15307;SDS011;7755;52.208;6.964;2022-10-03T23:28:06;6.40;;;5.40;;
15307;SDS011;7755;52.208;6.964;2022-10-03T23:32:20;6.23;;;5.73;;
15307;SDS011;7755;52.208;6.964;2022-10-03T23:36:57;6.73;;;6.10;;
15307;SDS011;7755;52.208;6.964;2022-10-03T23:41:00;7.77;;;7.07;;
15307;SDS011;7755;52.208;6.964;2022-10-03T23:45:09;7.67;;;6.70;;
15307;SDS011;7755;52.208;6.964;2022-10-03T23:49:14;10.03;;;8.87;;
15307;SDS011;7755;52.208;6.964;2022-10-03T23:53:18;7.30;;;6.70;;
15307;SDS011;7755;52.208;6.964;2022-10-03T23:57:26;7.07;;;6.47;;
